KDNS/DNS METAR and TAF weather

Enter ICAO airport designator
Station Type Date Time Source
KDNS METAR 2022/01/29 02:15 UTC NOAA

KDNS 290215Z AUTO 18007KT 10SM CLR M07/M15 A3026 RMK AO2


Station Type Date Time Source
KDNS Decoded METAR 2022/01/29 02:15 UTC NOAA

Denison, IA, United States (KDNS) 41-59N 095-23W
Jan 28, 2022 - 09:15 PM EST / 2022.01.29 0215 UTC
Wind: from the S (180 degrees) at 8 MPH (7 KT):0
Visibility: 10 mile(s):0
Sky conditions: clear
Temperature: 19 F (-7 C)
Windchill: 8 F (-13 C):1
Dew Point: 5 F (-15 C)
Relative Humidity: 52%
Pressure (altimeter): 30.26 in. Hg (1024 hPa)
ob: KDNS 290215Z AUTO 18007KT 10SM CLR M07/M15 A3026 RMK AO2
cycle: 2

Station Type Date Time Source
KDNS TAF UTC NOAA

Error!

Example: see airport list